sensor_id;sensor_type;location;lat;lon;timestamp;pressure;altitude;pressure_sealevel;temperature;humidity
49627;BME280;35527;54.616;39.786;2023-02-03T00:00:36;99470.34;;;-1.83;100.00
49627;BME280;35527;54.616;39.786;2023-02-03T00:03:40;99450.91;;;-1.75;100.00
49627;BME280;35527;54.616;39.786;2023-02-03T00:06:48;99461.88;;;-1.81;100.00
49627;BME280;35527;54.616;39.786;2023-02-03T00:09:52;99454.22;;;-1.93;100.00
49627;BME280;35527;54.616;39.786;2023-02-03T00:12:56;99454.22;;;-1.87;100.00
49627;BME280;35527;54.616;39.786;2023-02-03T00:16:00;99471.19;;;-1.83;100.00
49627;BME280;35527;54.616;39.786;2023-02-03T00:19:07;99456.81;;;-1.82;100.00
49627;BME280;35527;54.616;39.786;2023-02-03T00:22:10;99467.94;;;-1.51;100.00
49627;BME280;35527;54.616;39.786;2023-02-03T00:25:14;99446.69;;;-1.79;100.00
49627;BME280;35527;54.616;39.786;2023-02-03T00:28:21;99439.88;;;-1.85;100.00
49627;BME280;35527;54.616;39.786;2023-02-03T00:31:25;99450.00;;;-1.88;100.00
49627;BME280;35527;54.616;39.786;2023-02-03T00:34:29;99455.31;;;-1.31;100.00
49627;BME280;35527;54.616;39.786;2023-02-03T00:37:32;99456.19;;;-1.18;100.00
49627;BME280;35527;54.616;39.786;2023-02-03T00:40:36;99451.97;;;-1.25;100.00
49627;BME280;35527;54.616;39.786;2023-02-03T00:43:42;99462.84;;;-1.55;100.00
49627;BME280;35527;54.616;39.786;2023-02-03T00:47:10;99435.88;;;-1.26;100.00
49627;BME280;35527;54.616;39.786;2023-02-03T00:50:15;99428.25;;;-1.24;100.00
49627;BME280;35527;54.616;39.786;2023-02-03T00:53:18;99442.63;;;-1.31;100.00
49627;BME280;35527;54.616;39.786;2023-02-03T00:56:28;99451.97;;;-1.22;100.00
49627;BME280;35527;54.616;39.786;2023-02-03T00:59:31;99447.69;;;-1.32;100.00
49627;BME280;35527;54.616;39.786;2023-02-03T01:02:38;99430.69;;;-1.58;100.00
49627;BME280;35527;54.616;39.786;2023-02-03T01:05:41;99430.59;;;-1.84;100.00
49627;BME280;35527;54.616;39.786;2023-02-03T01:08:50;99439.94;;;-1.74;100.00
49627;BME280;35527;54.616;39.786;2023-02-03T01:11:53;99446.78;;;-1.53;100.00
49627;BME280;35527;54.616;39.786;2023-02-03T01:14:57;99458.59;;;-1.60;100.00
49627;BME280;35527;54.616;39.786;2023-02-03T01:18:00;99450.09;;;-1.69;100.00
49627;BME280;35527;54.616;39.786;2023-02-03T01:21:05;99441.66;;;-1.71;100.00
49627;BME280;35527;54.616;39.786;2023-02-03T01:24:09;99396.69;;;-1.98;100.00
49627;BME280;35527;54.616;39.786;2023-02-03T01:27:13;99450.13;;;-1.65;100.00
49627;BME280;35527;54.616;39.786;2023-02-03T01:30:18;99451.94;;;-1.27;100.00
49627;BME280;35527;54.616;39.786;2023-02-03T01:33:22;99459.53;;;-1.39;100.00
49627;BME280;35527;54.616;39.786;2023-02-03T01:36:31;99455.25;;;-1.46;100.00
49627;BME280;35527;54.616;39.786;2023-02-03T01:39:36;99447.72;;;-1.28;100.00
49627;BME280;35527;54.616;39.786;2023-02-03T01:42:40;99466.31;;;-1.29;100.00
49627;BME280;35527;54.616;39.786;2023-02-03T01:45:44;99437.53;;;-1.37;100.00
49627;BME280;35527;54.616;39.786;2023-02-03T01:48:49;99451.97;;;-1.19;100.00
49627;BME280;35527;54.616;39.786;2023-02-03T01:51:54;99440.94;;;-1.33;100.00
49627;BME280;35527;54.616;39.786;2023-02-03T01:55:00;99450.25;;;-1.28;100.00
49627;BME280;35527;54.616;39.786;2023-02-03T01:58:16;99432.47;;;-1.36;100.00
49627;BME280;35527;54.616;39.786;2023-02-03T02:01:22;99453.66;;;-1.23;100.00
49627;BME280;35527;54.616;39.786;2023-02-03T02:04:36;99441.81;;;-1.25;100.00
49627;BME280;35527;54.616;39.786;2023-02-03T02:07:42;99440.09;;;-1.37;100.00
49627;BME280;35527;54.616;39.786;2023-02-03T02:10:47;99444.31;;;-1.27;100.00
49627;BME280;35527;54.616;39.786;2023-02-03T02:13:53;99440.03;;;-1.45;100.00
49627;BME280;35527;54.616;39.786;2023-02-03T02:17:11;99428.97;;;-1.61;100.00
49627;BME280;35527;54.616;39.786;2023-02-03T02:30:35;99451.06;;;-1.37;100.00
49627;BME280;35527;54.616;39.786;2023-02-03T02:33:52;99450.25;;;-1.31;100.00
49627;BME280;35527;54.616;39.786;2023-02-03T02:37:23;99431.59;;;-1.44;100.00
49627;BME280;35527;54.616;39.786;2023-02-03T02:44:57;99435.88;;;-1.27;100.00
49627;BME280;35527;54.616;39.786;2023-02-03T02:47:39;99435.78;;;-1.49;100.00
49627;BME280;35527;54.616;39.786;2023-02-03T02:50:45;99410.38;;;-1.67;100.00
49627;BME280;35527;54.616;39.786;2023-02-03T02:54:01;99415.53;;;-1.35;100.00
49627;BME280;35527;54.616;39.786;2023-02-03T02:57:09;99417.25;;;-1.40;100.00
49627;BME280;35527;54.616;39.786;2023-02-03T03:00:13;99438.34;;;-1.53;100.00
49627;BME280;35527;54.616;39.786;2023-02-03T03:03:21;99427.31;;;-1.57;100.00
49627;BME280;35527;54.616;39.786;2023-02-03T03:06:28;99438.41;;;-1.21;100.00
49627;BME280;35527;54.616;39.786;2023-02-03T03:09:50;99445.94;;;-1.50;100.00
49627;BME280;35527;54.616;39.786;2023-02-03T03:13:02;99413.84;;;-1.45;100.00
49627;BME280;35527;54.616;39.786;2023-02-03T03:16:13;99443.38;;;-1.55;100.00
49627;BME280;35527;54.616;39.786;2023-02-03T03:19:23;99395.97;;;-1.76;100.00
49627;BME280;35527;54.616;39.786;2023-02-03T03:22:30;99439.13;;;-1.58;100.00
49627;BME280;35527;54.616;39.786;2023-02-03T03:25:42;99438.31;;;-1.60;100.00
49627;BME280;35527;54.616;39.786;2023-02-03T03:28:51;99427.25;;;-1.69;100.00
49627;BME280;35527;54.616;39.786;2023-02-03T03:31:55;99419.63;;;-1.77;100.00
49627;BME280;35527;54.616;39.786;2023-02-03T03:35:02;99436.66;;;-1.54;100.00
49627;BME280;35527;54.616;39.786;2023-02-03T03:38:14;99423.88;;;-1.67;100.00
49627;BME280;35527;54.616;39.786;2023-02-03T03:45:06;99424.03;;;-1.31;100.00
49627;BME280;35527;54.616;39.786;2023-02-03T03:51:56;99435.88;;;-1.26;100.00
49627;BME280;35527;54.616;39.786;2023-02-03T03:55:04;99398.47;;;-1.77;100.00
49627;BME280;35527;54.616;39.786;2023-02-03T03:58:13;99418.75;;;-1.81;100.00
49627;BME280;35527;54.616;39.786;2023-02-03T04:01:20;99430.63;;;-1.79;100.00
49627;BME280;35527;54.616;39.786;2023-02-03T04:04:25;99417.78;;;-2.07;100.00
49627;BME280;35527;54.616;39.786;2023-02-03T04:07:41;99441.56;;;-1.88;100.00
49627;BME280;35527;54.616;39.786;2023-02-03T04:10:44;99429.81;;;-1.66;100.00
49627;BME280;35527;54.616;39.786;2023-02-03T04:13:48;99438.31;;;-1.55;100.00
49627;BME280;35527;54.616;39.786;2023-02-03T04:16:51;99452.63;;;-1.71;100.00
49627;BME280;35527;54.616;39.786;2023-02-03T04:19:58;99390.69;;;-2.19;100.00
49627;BME280;35527;54.616;39.786;2023-02-03T04:23:00;99437.44;;;-1.62;100.00
49627;BME280;35527;54.616;39.786;2023-02-03T04:26:05;99437.34;;;-1.82;100.00
49627;BME280;35527;54.616;39.786;2023-02-03T04:29:08;99443.38;;;-1.60;100.00
49627;BME280;35527;54.616;39.786;2023-02-03T04:32:12;99459.41;;;-1.71;100.00
49627;BME280;35527;54.616;39.786;2023-02-03T04:35:15;99431.41;;;-1.87;100.00
49627;BME280;35527;54.616;39.786;2023-02-03T04:38:19;99438.25;;;-1.76;100.00
49627;BME280;35527;54.616;39.786;2023-02-03T04:41:22;99423.78;;;-1.90;100.00
49627;BME280;35527;54.616;39.786;2023-02-03T04:44:26;99439.91;;;-1.82;100.00
49627;BME280;35527;54.616;39.786;2023-02-03T04:47:29;99446.69;;;-1.73;100.00
49627;BME280;35527;54.616;39.786;2023-02-03T04:51:06;99437.38;;;-1.75;100.00
49627;BME280;35527;54.616;39.786;2023-02-03T04:54:10;99391.69;;;-1.86;100.00
49627;BME280;35527;54.616;39.786;2023-02-03T04:57:13;99454.44;;;-1.39;100.00
49627;BME280;35527;54.616;39.786;2023-02-03T05:00:16;99444.28;;;-1.38;100.00
49627;BME280;35527;54.616;39.786;2023-02-03T05:03:22;99448.56;;;-1.27;100.00
49627;BME280;35527;54.616;39.786;2023-02-03T05:06:27;99449.41;;;-1.28;100.00
49627;BME280;35527;54.616;39.786;2023-02-03T05:09:32;99462.09;;;-1.24;100.00
49627;BME280;35527;54.616;39.786;2023-02-03T05:12:35;99451.97;;;-1.25;100.00
49627;BME280;35527;54.616;39.786;2023-02-03T05:15:43;99455.34;;;-1.28;100.00
49627;BME280;35527;54.616;39.786;2023-02-03T05:18:46;99453.63;;;-1.30;100.00
49627;BME280;35527;54.616;39.786;2023-02-03T05:21:50;99451.09;;;-1.27;100.00
49627;BME280;35527;54.616;39.786;2023-02-03T05:24:53;99428.16;;;-1.56;100.00
49627;BME280;35527;54.616;39.786;2023-02-03T05:27:58;99451.00;;;-1.53;100.00
49627;BME280;35527;54.616;39.786;2023-02-03T05:31:02;99452.69;;;-1.52;100.00
49627;BME280;35527;54.616;39.786;2023-02-03T05:34:06;99451.81;;;-1.58;100.00
49627;BME280;35527;54.616;39.786;2023-02-03T05:37:08;99424.72;;;-1.71;100.00
49627;BME280;35527;54.616;39.786;2023-02-03T05:40:14;99452.72;;;-1.54;100.00
49627;BME280;35527;54.616;39.786;2023-02-03T05:43:37;99459.56;;;-1.18;100.00
49627;BME280;35527;54.616;39.786;2023-02-03T05:46:40;99463.00;;;-1.11;100.00
49627;BME280;35527;54.616;39.786;2023-02-03T05:49:43;99453.66;;;-1.09;100.00
49627;BME280;35527;54.616;39.786;2023-02-03T05:52:49;99457.06;;;-1.01;100.00
49627;BME280;35527;54.616;39.786;2023-02-03T05:55:52;99446.91;;;-1.07;100.00
49627;BME280;35527;54.616;39.786;2023-02-03T05:58:57;99440.16;;;-1.11;100.00
49627;BME280;35527;54.616;39.786;2023-02-03T06:02:02;99460.50;;;-0.94;100.00
49627;BME280;35527;54.616;39.786;2023-02-03T06:05:07;99433.31;;;-1.43;100.00
49627;BME280;35527;54.616;39.786;2023-02-03T06:08:12;99473.94;;;-1.24;100.00
49627;BME280;35527;54.616;39.786;2023-02-03T06:11:15;99437.50;;;-1.43;100.00
49627;BME280;35527;54.616;39.786;2023-02-03T06:14:17;99447.75;;;-1.17;100.00
49627;BME280;35527;54.616;39.786;2023-02-03T06:17:23;99452.00;;;-0.98;100.00
49627;BME280;35527;54.616;39.786;2023-02-03T06:20:25;99467.28;;;-0.82;100.00
49627;BME280;35527;54.616;39.786;2023-02-03T06:23:29;99453.69;;;-0.89;100.00
49627;BME280;35527;54.616;39.786;2023-02-03T06:26:32;99458.81;;;-0.78;100.00
49627;BME280;35527;54.616;39.786;2023-02-03T06:29:42;99469.00;;;-0.74;100.00
49627;BME280;35527;54.616;39.786;2023-02-03T06:32:54;99469.00;;;-0.74;100.00
49627;BME280;35527;54.616;39.786;2023-02-03T06:35:57;99460.53;;;-0.77;100.00
49627;BME280;35527;54.616;39.786;2023-02-03T06:39:02;99460.47;;;-0.99;100.00
49627;BME280;35527;54.616;39.786;2023-02-03T06:42:12;99457.13;;;-0.70;100.00
49627;BME280;35527;54.616;39.786;2023-02-03T06:45:16;99450.34;;;-0.65;100.00
49627;BME280;35527;54.616;39.786;2023-02-03T06:48:20;99463.06;;;-0.56;100.00
49627;BME280;35527;54.616;39.786;2023-02-03T06:51:24;99461.38;;;-0.54;100.00
49627;BME280;35527;54.616;39.786;2023-02-03T06:54:53;99441.88;;;-0.62;100.00
49627;BME280;35527;54.616;39.786;2023-02-03T06:57:55;99473.22;;;-0.50;100.00
49627;BME280;35527;54.616;39.786;2023-02-03T07:00:58;99449.50;;;-0.65;100.00
49627;BME280;35527;54.616;39.786;2023-02-03T07:04:02;99455.41;;;-0.57;100.00
49627;BME280;35527;54.616;39.786;2023-02-03T07:07:07;99465.63;;;-0.51;100.00
49627;BME280;35527;54.616;39.786;2023-02-03T07:10:10;99458.84;;;-0.60;100.00
49627;BME280;35527;54.616;39.786;2023-02-03T07:13:12;99457.13;;;-0.47;100.00
49627;BME280;35527;54.616;39.786;2023-02-03T07:16:15;99471.50;;;-0.66;100.00
49627;BME280;35527;54.616;39.786;2023-02-03T07:19:20;99465.59;;;-0.79;100.00
49627;BME280;35527;54.616;39.786;2023-02-03T07:22:23;99458.81;;;-0.74;100.00
49627;BME280;35527;54.616;39.786;2023-02-03T07:25:28;99467.28;;;-0.36;100.00
49627;BME280;35527;54.616;39.786;2023-02-03T07:28:33;99467.28;;;-0.41;100.00
49627;BME280;35527;54.616;39.786;2023-02-03T07:31:40;99467.28;;;-0.30;100.00
49627;BME280;35527;54.616;39.786;2023-02-03T07:35:09;99463.06;;;-0.31;100.00
49627;BME280;35527;54.616;39.786;2023-02-03T07:38:12;99463.88;;;-0.29;100.00
49627;BME280;35527;54.616;39.786;2023-02-03T07:41:15;99463.03;;;-0.27;100.00
49627;BME280;35527;54.616;39.786;2023-02-03T07:44:21;99434.25;;;-0.42;100.00
49627;BME280;35527;54.616;39.786;2023-02-03T07:47:23;99466.44;;;-0.31;100.00
49627;BME280;35527;54.616;39.786;2023-02-03T07:50:27;99454.59;;;-0.36;100.00
49627;BME280;35527;54.616;39.786;2023-02-03T07:53:30;99475.75;;;-0.19;100.00
49627;BME280;35527;54.616;39.786;2023-02-03T07:56:35;99474.88;;;-0.12;100.00
49627;BME280;35527;54.616;39.786;2023-02-03T07:59:38;99462.22;;;-0.22;100.00
49627;BME280;35527;54.616;39.786;2023-02-03T08:02:42;99452.84;;;-0.20;100.00
49627;BME280;35527;54.616;39.786;2023-02-03T08:05:46;99469.81;;;0.01;100.00
49627;BME280;35527;54.616;39.786;2023-02-03T08:08:55;99473.16;;;0.10;100.00
49627;BME280;35527;54.616;39.786;2023-02-03T08:11:57;99438.44;;;-0.08;100.00
49627;BME280;35527;54.616;39.786;2023-02-03T08:15:01;99474.84;;;0.05;100.00
49627;BME280;35527;54.616;39.786;2023-02-03T08:18:07;99466.38;;;0.05;100.00
49627;BME280;35527;54.616;39.786;2023-02-03T08:21:13;99455.38;;;0.01;100.00
49627;BME280;35527;54.616;39.786;2023-02-03T08:39:05;99462.06;;;0.33;100.00
49627;BME280;35527;54.616;39.786;2023-02-03T08:42:12;99455.41;;;-0.08;100.00
49627;BME280;35527;54.616;39.786;2023-02-03T08:45:15;99445.22;;;-0.16;100.00
49627;BME280;35527;54.616;39.786;2023-02-03T08:48:19;99423.22;;;-0.29;100.00
49627;BME280;35527;54.616;39.786;2023-02-03T08:51:23;99441.78;;;0.02;100.00
49627;BME280;35527;54.616;39.786;2023-02-03T08:54:28;99451.97;;;0.02;100.00
49627;BME280;35527;54.616;39.786;2023-02-03T08:57:34;99451.09;;;0.15;100.00
49627;BME280;35527;54.616;39.786;2023-02-03T09:00:42;99456.22;;;-0.02;100.00
49627;BME280;35527;54.616;39.786;2023-02-03T09:03:45;99455.34;;;0.10;100.00
49627;BME280;35527;54.616;39.786;2023-02-03T09:06:50;99431.59;;;0.20;100.00
49627;BME280;35527;54.616;39.786;2023-02-03T09:09:53;99414.66;;;0.04;100.00
49627;BME280;35527;54.616;39.786;2023-02-03T09:12:59;99456.13;;;0.38;100.00
49627;BME280;35527;54.616;39.786;2023-02-03T09:16:01;99401.91;;;0.15;100.00
49627;BME280;35527;54.616;39.786;2023-02-03T09:19:05;99437.38;;;0.53;100.00
49627;BME280;35527;54.616;39.786;2023-02-03T09:22:08;99451.03;;;0.43;100.00
49627;BME280;35527;54.616;39.786;2023-02-03T09:25:13;99439.09;;;0.48;100.00
49627;BME280;35527;54.616;39.786;2023-02-03T09:28:17;99450.09;;;0.56;100.00
49627;BME280;35527;54.616;39.786;2023-02-03T09:31:20;99427.88;;;0.86;100.00
49627;BME280;35527;54.616;39.786;2023-02-03T09:34:23;99418.66;;;0.66;100.00
49627;BME280;35527;54.616;39.786;2023-02-03T09:37:28;99459.38;;;0.73;100.00
49627;BME280;35527;54.616;39.786;2023-02-03T09:40:33;99423.91;;;0.33;100.00
49627;BME280;35527;54.616;39.786;2023-02-03T09:44:12;99457.63;;;0.76;100.00
49627;BME280;35527;54.616;39.786;2023-02-03T09:47:20;99436.63;;;0.33;100.00
49627;BME280;35527;54.616;39.786;2023-02-03T09:50:29;99450.94;;;0.54;100.00
49627;BME280;35527;54.616;39.786;2023-02-03T09:53:41;99454.38;;;0.48;100.00
49627;BME280;35527;54.616;39.786;2023-02-03T09:56:48;99447.53;;;0.61;100.00
49627;BME280;35527;54.616;39.786;2023-02-03T09:59:58;99433.91;;;0.73;100.00
49627;BME280;35527;54.616;39.786;2023-02-03T10:06:37;99450.03;;;0.72;100.00
49627;BME280;35527;54.616;39.786;2023-02-03T10:16:48;99417.78;;;0.67;100.00
49627;BME280;35527;54.616;39.786;2023-02-03T10:23:21;99450.03;;;0.65;100.00
49627;BME280;35527;54.616;39.786;2023-02-03T10:26:27;99446.66;;;0.65;100.00
49627;BME280;35527;54.616;39.786;2023-02-03T10:29:37;99427.25;;;0.44;100.00
49627;BME280;35527;54.616;39.786;2023-02-03T10:33:14;99431.47;;;0.47;100.00
49627;BME280;35527;54.616;39.786;2023-02-03T10:36:22;99456.88;;;0.60;100.00
49627;BME280;35527;54.616;39.786;2023-02-03T10:39:44;99425.56;;;0.43;100.00
49627;BME280;35527;54.616;39.786;2023-02-03T10:42:53;99445.03;;;0.53;100.00
49627;BME280;35527;54.616;39.786;2023-02-03T10:49:29;99455.13;;;0.65;100.00
49627;BME280;35527;54.616;39.786;2023-02-03T10:52:35;99451.75;;;0.65;100.00
49627;BME280;35527;54.616;39.786;2023-02-03T10:56:10;99443.31;;;0.55;100.00
49627;BME280;35527;54.616;39.786;2023-02-03T10:59:28;99434.06;;;0.40;100.00
49627;BME280;35527;54.616;39.786;2023-02-03T11:02:35;99439.16;;;0.37;100.00
49627;BME280;35527;54.616;39.786;2023-02-03T11:05:40;99445.09;;;0.38;100.00
49627;BME280;35527;54.616;39.786;2023-02-03T11:08:47;99434.03;;;0.43;100.00
49627;BME280;35527;54.616;39.786;2023-02-03T11:12:14;99434.06;;;0.31;100.00
49627;BME280;35527;54.616;39.786;2023-02-03T11:15:18;99428.06;;;0.52;100.00
49627;BME280;35527;54.616;39.786;2023-02-03T11:22:04;99445.03;;;0.55;100.00
49627;BME280;35527;54.616;39.786;2023-02-03T11:25:24;99448.41;;;0.55;100.00
49627;BME280;35527;54.616;39.786;2023-02-03T11:28:31;99436.56;;;0.50;100.00
49627;BME280;35527;54.616;39.786;2023-02-03T11:31:35;99443.31;;;0.55;100.00
49627;BME280;35527;54.616;39.786;2023-02-03T11:34:52;99447.41;;;0.85;100.00
49627;BME280;35527;54.616;39.786;2023-02-03T11:37:59;99443.31;;;0.58;100.00
49627;BME280;35527;54.616;39.786;2023-02-03T11:41:03;99436.56;;;0.47;100.00
49627;BME280;35527;54.616;39.786;2023-02-03T11:44:29;99450.91;;;0.66;100.00
49627;BME280;35527;54.616;39.786;2023-02-03T11:48:00;99449.13;;;0.79;100.00
49627;BME280;35527;54.616;39.786;2023-02-03T11:54:29;99452.53;;;0.76;100.00
49627;BME280;35527;54.616;39.786;2023-02-03T11:58:05;99445.72;;;0.80;100.00
49627;BME280;35527;54.616;39.786;2023-02-03T12:12:07;99440.66;;;0.74;100.00
49627;BME280;35527;54.616;39.786;2023-02-03T12:15:37;99445.88;;;0.52;100.00
49627;BME280;35527;54.616;39.786;2023-02-03T12:19:02;99442.44;;;0.64;100.00
49627;BME280;35527;54.616;39.786;2023-02-03T12:26:10;99434.75;;;0.72;100.00
49627;BME280;35527;54.616;39.786;2023-02-03T12:36:04;99409.50;;;0.32;100.00
49627;BME280;35527;54.616;39.786;2023-02-03T12:42:41;99426.34;;;0.57;100.00
49627;BME280;35527;54.616;39.786;2023-02-03T12:46:02;99421.25;;;0.51;100.00
49627;BME280;35527;54.616;39.786;2023-02-03T12:49:31;99415.28;;;0.58;100.00
49627;BME280;35527;54.616;39.786;2023-02-03T12:52:49;99439.03;;;0.65;100.00
49627;BME280;35527;54.616;39.786;2023-02-03T12:56:30;99437.34;;;0.64;100.00
49627;BME280;35527;54.616;39.786;2023-02-03T12:59:36;99439.78;;;0.81;100.00
49627;BME280;35527;54.616;39.786;2023-02-03T13:12:46;99441.66;;;0.47;100.00
49627;BME280;35527;54.616;39.786;2023-02-03T13:15:53;99442.50;;;0.50;100.00
49627;BME280;35527;54.616;39.786;2023-02-03T13:19:07;99376.50;;;0.09;100.00
49627;BME280;35527;54.616;39.786;2023-02-03T13:22:14;99411.16;;;0.31;100.00
49627;BME280;35527;54.616;39.786;2023-02-03T13:25:26;99406.91;;;0.41;100.00
49627;BME280;35527;54.616;39.786;2023-02-03T13:39:59;99395.97;;;0.16;100.00
49627;BME280;35527;54.616;39.786;2023-02-03T13:43:05;99432.38;;;0.35;100.00
49627;BME280;35527;54.616;39.786;2023-02-03T13:46:39;99428.13;;;0.38;100.00
49627;BME280;35527;54.616;39.786;2023-02-03T13:49:44;99414.59;;;0.29;100.00
49627;BME280;35527;54.616;39.786;2023-02-03T13:53:05;99434.06;;;0.31;100.00
49627;BME280;35527;54.616;39.786;2023-02-03T13:56:24;99406.09;;;0.30;100.00
49627;BME280;35527;54.616;39.786;2023-02-03T13:59:43;99437.47;;;0.33;100.00
49627;BME280;35527;54.616;39.786;2023-02-03T14:02:51;99440.84;;;0.34;100.00
49627;BME280;35527;54.616;39.786;2023-02-03T14:05:57;99448.50;;;0.32;100.00
49627;BME280;35527;54.616;39.786;2023-02-03T14:12:34;99440.03;;;0.35;100.00
49627;BME280;35527;54.616;39.786;2023-02-03T14:15:38;99434.06;;;0.34;100.00
49627;BME280;35527;54.616;39.786;2023-02-03T14:18:45;99438.31;;;0.32;100.00
49627;BME280;35527;54.616;39.786;2023-02-03T14:22:16;99437.47;;;0.33;100.00
49627;BME280;35527;54.616;39.786;2023-02-03T14:25:20;99434.94;;;0.27;100.00
49627;BME280;35527;54.616;39.786;2023-02-03T14:28:36;99439.16;;;0.33;100.00
49627;BME280;35527;54.616;39.786;2023-02-03T14:31:56;99445.94;;;0.37;100.00
49627;BME280;35527;54.616;39.786;2023-02-03T14:35:37;99400.25;;;0.06;100.00
49627;BME280;35527;54.616;39.786;2023-02-03T14:38:42;99432.38;;;0.35;100.00
49627;BME280;35527;54.616;39.786;2023-02-03T14:42:07;99420.47;;;0.37;100.00
49627;BME280;35527;54.616;39.786;2023-02-03T14:46:01;99440.06;;;0.19;100.00
49627;BME280;35527;54.616;39.786;2023-02-03T15:03:24;99397.75;;;-0.11;100.00
49627;BME280;35527;54.616;39.786;2023-02-03T15:06:53;99433.28;;;0.17;100.00
49627;BME280;35527;54.616;39.786;2023-02-03T15:10:40;99412.09;;;0.10;100.00
49627;BME280;35527;54.616;39.786;2023-02-03T15:13:43;99432.41;;;0.22;100.00
49627;BME280;35527;54.616;39.786;2023-02-03T15:16:56;99405.34;;;0.09;100.00
49627;BME280;35527;54.616;39.786;2023-02-03T15:20:00;99409.56;;;0.07;100.00
49627;BME280;35527;54.616;39.786;2023-02-03T15:23:28;99406.19;;;0.05;100.00
49627;BME280;35527;54.616;39.786;2023-02-03T15:26:31;99426.50;;;0.17;100.00
49627;BME280;35527;54.616;39.786;2023-02-03T15:29:33;99407.91;;;0.00;100.00
49627;BME280;35527;54.616;39.786;2023-02-03T15:32:41;99408.72;;;0.05;100.00
49627;BME280;35527;54.616;39.786;2023-02-03T15:35:47;99445.16;;;0.15;100.00
49627;BME280;35527;54.616;39.786;2023-02-03T15:38:57;99445.13;;;0.19;100.00
49627;BME280;35527;54.616;39.786;2023-02-03T15:42:03;99435.81;;;0.17;100.00
49627;BME280;35527;54.616;39.786;2023-02-03T15:45:33;99445.19;;;0.09;100.00
49627;BME280;35527;54.616;39.786;2023-02-03T15:48:48;99427.41;;;-0.05;100.00
49627;BME280;35527;54.616;39.786;2023-02-03T15:52:12;99434.13;;;0.11;100.00
49627;BME280;35527;54.616;39.786;2023-02-03T15:55:32;99420.59;;;0.12;100.00
49627;BME280;35527;54.616;39.786;2023-02-03T15:58:44;99436.69;;;0.17;100.00
49627;BME280;35527;54.616;39.786;2023-02-03T16:01:52;99427.41;;;-0.07;100.00
49627;BME280;35527;54.616;39.786;2023-02-03T16:04:56;99435.84;;;0.05;100.00
49627;BME280;35527;54.616;39.786;2023-02-03T16:08:51;99437.56;;;0.07;100.00
49627;BME280;35527;54.616;39.786;2023-02-03T16:12:16;99433.31;;;0.02;100.00
49627;BME280;35527;54.616;39.786;2023-02-03T16:15:23;99443.50;;;0.05;100.00
49627;BME280;35527;54.616;39.786;2023-02-03T16:18:29;99441.81;;;-0.01;100.00
49627;BME280;35527;54.616;39.786;2023-02-03T16:21:51;99446.88;;;0.05;100.00
49627;BME280;35527;54.616;39.786;2023-02-03T16:24:55;99384.25;;;-0.34;100.00
49627;BME280;35527;54.616;39.786;2023-02-03T16:28:14;99429.13;;;-0.24;100.00
49627;BME280;35527;54.616;39.786;2023-02-03T16:31:43;99453.72;;;-0.14;100.00
49627;BME280;35527;54.616;39.786;2023-02-03T16:35:09;99442.69;;;-0.16;100.00
49627;BME280;35527;54.616;39.786;2023-02-03T16:38:32;99437.59;;;-0.13;100.00
49627;BME280;35527;54.616;39.786;2023-02-03T16:41:56;99427.41;;;-0.10;100.00
49627;BME280;35527;54.616;39.786;2023-02-03T16:45:21;99438.41;;;-0.02;100.00
49627;BME280;35527;54.616;39.786;2023-02-03T16:48:43;99438.44;;;-0.11;100.00
49627;BME280;35527;54.616;39.786;2023-02-03T16:52:04;99446.03;;;0.02;100.00
49627;BME280;35527;54.616;39.786;2023-02-03T16:55:36;99440.16;;;-0.08;100.00
49627;BME280;35527;54.616;39.786;2023-02-03T16:58:39;99429.13;;;-0.13;100.00
49627;BME280;35527;54.616;39.786;2023-02-03T17:01:42;99437.56;;;0.03;100.00
49627;BME280;35527;54.616;39.786;2023-02-03T17:04:45;99444.31;;;0.08;100.00
49627;BME280;35527;54.616;39.786;2023-02-03T17:07:50;99450.28;;;0.12;100.00
49627;BME280;35527;54.616;39.786;2023-02-03T17:10:54;99456.19;;;0.14;100.00
49627;BME280;35527;54.616;39.786;2023-02-03T17:13:59;99454.47;;;0.19;100.00
49627;BME280;35527;54.616;39.786;2023-02-03T17:17:02;99435.03;;;-0.07;100.00
49627;BME280;35527;54.616;39.786;2023-02-03T17:20:07;99425.72;;;-0.11;100.00
49627;BME280;35527;54.616;39.786;2023-02-03T17:23:12;99454.50;;;0.11;100.00
49627;BME280;35527;54.616;39.786;2023-02-03T17:26:19;99451.94;;;0.17;100.00
49627;BME280;35527;54.616;39.786;2023-02-03T17:29:21;99426.53;;;0.04;100.00
49627;BME280;35527;54.616;39.786;2023-02-03T17:32:33;99447.69;;;0.21;100.00
49627;BME280;35527;54.616;39.786;2023-02-03T17:35:35;99427.44;;;-0.08;100.00
49627;BME280;35527;54.616;39.786;2023-02-03T17:38:45;99429.13;;;-0.15;100.00
49627;BME280;35527;54.616;39.786;2023-02-03T17:42:12;99440.94;;;-0.03;100.00
49627;BME280;35527;54.616;39.786;2023-02-03T17:45:39;99459.63;;;0.04;100.00
49627;BME280;35527;54.616;39.786;2023-02-03T17:48:59;99443.53;;;-0.12;100.00
49627;BME280;35527;54.616;39.786;2023-02-03T17:52:22;99451.97;;;0.02;100.00
49627;BME280;35527;54.616;39.786;2023-02-03T17:55:47;99455.38;;;-0.02;100.00
49627;BME280;35527;54.616;39.786;2023-02-03T17:58:59;99454.50;;;0.11;100.00
49627;BME280;35527;54.616;39.786;2023-02-03T18:02:03;99457.09;;;0.01;100.00
49627;BME280;35527;54.616;39.786;2023-02-03T18:05:05;99437.56;;;0.03;100.00
49627;BME280;35527;54.616;39.786;2023-02-03T18:08:10;99429.91;;;0.03;100.00
49627;BME280;35527;54.616;39.786;2023-02-03T18:11:18;99455.34;;;0.12;100.00
49627;BME280;35527;54.616;39.786;2023-02-03T18:14:20;99436.72;;;0.02;100.00
49627;BME280;35527;54.616;39.786;2023-02-03T18:17:24;99472.28;;;0.27;100.00
49627;BME280;35527;54.616;39.786;2023-02-03T18:20:28;99478.22;;;0.27;100.00
49627;BME280;35527;54.616;39.786;2023-02-03T18:23:32;99444.31;;;0.11;100.00
49627;BME280;35527;54.616;39.786;2023-02-03T18:26:44;99453.63;;;0.17;100.00
49627;BME280;35527;54.616;39.786;2023-02-03T18:30:13;99451.09;;;0.14;100.00